Time;durP1;ratioP1;P1;durP2;ratioP2;P2;SDS_P1;SDS_P2;PMS_P1;PMS_P2;Temp;Humidity;BMP_temperature;BMP_pressure;BME280_temperature;BME280_humidity;BME280_pressure;Samples;Min_cycle;Max_cycle;Signal;HPM_P1;HPM_P2
2021/06/03 00:00:58;;;;;;;13.55;3.50;;;;;;;20.28;58.18;101401.97;5027199;28;20029;-71
2021/06/03 00:03:25;;;;;;;9.43;3.25;;;;;;;20.22;58.26;101393.06;5021564;28;20549;-71
2021/06/03 00:05:57;;;;;;;16.42;4.00;;;;;;;20.19;58.85;101390.84;5026113;28;20261;-71
2021/06/03 00:08:25;;;;;;;12.65;4.45;;;;;;;20.20;58.81;101401.19;5035282;28;20136;-71
2021/06/03 00:11:01;;;;;;;9.85;3.28;;;;;;;20.18;59.14;101400.56;5024054;28;20108;-71
2021/06/03 00:13:29;;;;;;;13.90;4.13;;;;;;;20.12;59.12;101396.13;5036420;28;20124;-71
2021/06/03 00:15:57;;;;;;;7.82;3.67;;;;;;;20.09;59.24;101401.00;5037928;28;20095;-71
2021/06/03 00:18:23;;;;;;;6.55;3.33;;;;;;;20.09;59.46;101398.38;5026182;28;20033;-71
2021/06/03 00:20:50;;;;;;;10.60;4.05;;;;;;;20.12;59.69;101390.88;5025982;28;20080;-71
2021/06/03 00:23:15;;;;;;;12.75;4.25;;;;;;;20.12;59.48;101398.78;5041740;28;20057;-71
2021/06/03 00:25:40;;;;;;;11.00;3.70;;;;;;;20.18;59.68;101397.13;5039507;28;20502;-71
2021/06/03 00:28:06;;;;;;;11.02;3.60;;;;;;;20.11;60.13;101396.34;5040812;28;20159;-71
2021/06/03 00:30:32;;;;;;;10.55;4.00;;;;;;;20.07;60.21;101403.03;5040559;28;20049;-71
2021/06/03 00:32:58;;;;;;;6.53;3.05;;;;;;;20.03;60.14;101398.16;5022917;28;20107;-71
2021/06/03 00:35:24;;;;;;;7.85;3.90;;;;;;;20.01;60.22;101394.94;5027185;28;20148;-71
2021/06/03 00:37:50;;;;;;;9.95;3.70;;;;;;;19.96;60.57;101399.97;5025300;28;20090;-71
2021/06/03 00:40:18;;;;;;;8.20;3.88;;;;;;;19.88;61.04;101394.94;5024468;28;20040;-71
2021/06/03 00:42:43;;;;;;;11.02;3.60;;;;;;;19.89;60.74;101395.75;5021500;28;20038;-71
2021/06/03 00:45:13;;;;;;;10.88;3.50;;;;;;;19.84;61.12;101394.53;5023606;28;20033;-71
2021/06/03 00:47:39;;;;;;;9.57;3.70;;;;;;;19.83;61.05;101400.00;5021743;28;20072;-71
2021/06/03 00:50:11;;;;;;;10.32;4.28;;;;;;;19.86;60.75;101396.16;5024461;28;20068;-71
2021/06/03 00:52:36;;;;;;;6.07;3.08;;;;;;;19.80;60.92;101397.78;5038682;28;20048;-71
2021/06/03 00:55:03;;;;;;;7.20;3.80;;;;;;;19.79;60.79;101388.25;5040119;28;20025;-71
2021/06/03 00:57:29;;;;;;;6.93;3.95;;;;;;;19.81;61.10;101392.28;5038020;28;20017;-71
2021/06/03 00:59:54;;;;;;;12.07;3.83;;;;;;;19.77;61.19;101391.09;5020569;28;20044;-71
2021/06/03 01:02:20;;;;;;;8.68;3.50;;;;;;;19.74;61.27;101390.69;5039212;28;20041;-71
2021/06/03 01:04:45;;;;;;;6.03;3.95;;;;;;;19.72;61.21;101397.94;5020469;28;20029;-71
2021/06/03 01:07:11;;;;;;;9.18;3.83;;;;;;;19.71;61.27;101401.59;5025918;28;20041;-71
2021/06/03 01:09:54;;;;;;;6.70;3.25;;;;;;;19.69;61.50;101398.34;5023987;28;20065;-71
2021/06/03 01:12:38;;;;;;;7.63;3.60;;;;;;;19.68;61.49;101396.72;5023355;28;20041;-71
2021/06/03 01:15:07;;;;;;;9.88;4.10;;;;;;;19.66;61.80;101396.94;5034687;28;20047;-71
2021/06/03 01:17:34;;;;;;;6.03;2.80;;;;;;;19.63;61.83;101397.34;5021135;28;20044;-71
2021/06/03 01:20:00;;;;;;;5.25;2.97;;;;;;;19.62;61.73;101396.50;5023176;28;20033;-71
2021/06/03 01:22:51;;;;;;;6.80;3.47;;;;;;;19.59;61.94;101389.03;5041167;28;20044;-71
2021/06/03 01:25:18;;;;;;;10.75;3.28;;;;;;;19.54;61.99;101391.47;5037548;28;20029;-71
2021/06/03 01:27:44;;;;;;;7.45;4.72;;;;;;;19.51;62.26;101389.22;5038169;28;20037;-71
2021/06/03 01:30:26;;;;;;;8.05;3.25;;;;;;;19.51;61.98;101381.34;5034462;28;20118;-71
2021/06/03 01:33:03;;;;;;;5.95;3.25;;;;;;;19.49;62.17;101385.19;5021853;28;20437;-71
2021/06/03 01:35:33;;;;;;;6.68;3.30;;;;;;;19.47;62.23;101385.38;5037284;28;20037;-71
2021/06/03 01:38:02;;;;;;;6.15;3.28;;;;;;;19.45;62.25;101384.78;5024072;28;20037;-71
2021/06/03 01:40:31;;;;;;;12.65;3.42;;;;;;;19.42;62.32;101386.00;5037528;28;20083;-71
2021/06/03 01:42:57;;;;;;;4.90;3.20;;;;;;;19.41;62.32;101387.00;5024684;28;20086;-71
2021/06/03 01:45:23;;;;;;;6.63;3.38;;;;;;;19.38;62.46;101376.88;5039216;28;20041;-71
2021/06/03 01:47:53;;;;;;;4.72;3.33;;;;;;;19.37;62.37;101382.34;5023644;28;20056;-71
2021/06/03 01:50:19;;;;;;;6.70;3.30;;;;;;;19.24;63.22;101378.66;5038944;28;20061;-71
2021/06/03 01:52:51;;;;;;;5.32;3.50;;;;;;;19.19;63.22;101391.63;5032914;28;20037;-71
2021/06/03 01:55:17;;;;;;;7.97;3.80;;;;;;;19.17;63.07;101383.09;5024657;28;20026;-71
2021/06/03 01:57:44;;;;;;;7.25;2.90;;;;;;;19.16;63.17;101386.75;5022596;28;20077;-71
2021/06/03 02:00:20;;;;;;;7.78;3.40;;;;;;;19.13;63.29;101391.59;5037564;28;20073;-71
2021/06/03 02:02:47;;;;;;;7.78;3.42;;;;;;;19.11;63.18;101394.41;5021553;28;20072;-71
2021/06/03 02:05:16;;;;;;;5.00;2.90;;;;;;;19.09;63.45;101401.69;5023420;28;20025;-71
2021/06/03 02:07:41;;;;;;;8.70;3.20;;;;;;;19.04;63.63;101398.84;5038948;28;20025;-71
2021/06/03 02:10:08;;;;;;;6.55;3.00;;;;;;;19.00;63.53;101398.41;5039351;28;20575;-71
2021/06/03 02:13:00;;;;;;;7.22;3.97;;;;;;;18.96;63.47;101391.13;5019032;28;20048;-71
2021/06/03 02:15:29;;;;;;;8.70;3.40;;;;;;;18.89;63.78;101395.56;5022038;28;20143;-71
2021/06/03 02:17:58;;;;;;;8.32;3.50;;;;;;;18.85;63.80;101403.00;5022826;28;20037;-71
2021/06/03 02:20:29;;;;;;;7.05;3.90;;;;;;;18.83;63.98;101412.91;5033064;28;20495;-71
2021/06/03 02:22:56;;;;;;;4.68;3.08;;;;;;;18.76;63.93;101401.53;5038355;28;20037;-71
2021/06/03 02:25:24;;;;;;;6.65;3.28;;;;;;;18.67;64.32;101408.78;5039896;28;20079;-71
2021/06/03 02:27:52;;;;;;;11.88;3.30;;;;;;;18.59;64.45;101414.16;5022353;28;20343;-71
2021/06/03 02:30:20;;;;;;;10.57;4.85;;;;;;;18.50;64.81;101410.91;5021336;28;20083;-71
2021/06/03 02:32:49;;;;;;;11.07;4.30;;;;;;;18.39;65.31;101414.06;5023896;28;20068;-71
2021/06/03 02:35:16;;;;;;;8.77;3.75;;;;;;;18.18;65.93;101420.22;5037031;28;20072;-71
2021/06/03 02:37:47;;;;;;;6.63;3.78;;;;;;;18.08;66.46;101423.97;5038099;28;20086;-71
2021/06/03 02:40:20;;;;;;;8.32;4.60;;;;;;;18.14;66.41;101430.28;5022576;28;20128;-71
2021/06/03 02:42:47;;;;;;;10.32;4.32;;;;;;;17.97;67.44;101440.22;5037794;28;20037;-71
2021/06/03 02:45:22;;;;;;;11.65;4.38;;;;;;;17.89;67.74;101440.34;5024527;28;20120;-71
2021/06/03 02:47:48;;;;;;;13.03;4.53;;;;;;;17.80;68.16;101436.19;5039942;28;20040;-71
2021/06/03 02:50:19;;;;;;;10.18;3.83;;;;;;;17.77;68.11;101434.78;5018797;28;20296;-71
2021/06/03 02:52:45;;;;;;;6.93;3.38;;;;;;;17.77;67.88;101442.63;5026138;28;20059;-71
2021/06/03 02:55:16;;;;;;;7.85;3.85;;;;;;;17.80;67.67;101447.53;5045386;28;20122;-71
2021/06/03 02:57:43;;;;;;;8.23;4.53;;;;;;;17.79;67.44;101448.50;5040077;28;20030;-71
2021/06/03 03:00:18;;;;;;;8.40;3.17;;;;;;;17.75;67.42;101457.75;5040966;28;20446;-71
2021/06/03 03:02:44;;;;;;;6.50;3.40;;;;;;;17.73;67.51;101462.38;5040872;28;20034;-71
2021/06/03 03:05:10;;;;;;;6.18;3.88;;;;;;;17.72;67.10;101468.59;5045441;28;20044;-71
2021/06/03 03:07:37;;;;;;;7.95;4.53;;;;;;;17.77;66.92;101463.63;5040430;28;20029;-71
2021/06/03 03:10:07;;;;;;;7.60;4.38;;;;;;;17.69;66.98;101474.25;5026551;28;20029;-71
2021/06/03 03:12:32;;;;;;;5.72;4.07;;;;;;;17.60;67.17;101470.13;5043869;28;20393;-70
2021/06/03 03:14:59;;;;;;;9.07;4.07;;;;;;;17.56;67.39;101481.97;5026780;28;20029;-70
2021/06/03 03:17:26;;;;;;;10.30;4.38;;;;;;;17.54;67.72;101471.66;5039571;28;20124;-70
2021/06/03 03:19:52;;;;;;;9.13;4.32;;;;;;;17.50;67.90;101475.66;5040591;28;20117;-70
2021/06/03 03:22:18;;;;;;;9.68;4.57;;;;;;;17.52;67.58;101481.53;5040800;28;20053;-70
2021/06/03 03:24:45;;;;;;;6.90;4.00;;;;;;;17.46;67.56;101482.25;5022432;28;20038;-70
2021/06/03 03:27:11;;;;;;;5.43;3.95;;;;;;;17.43;67.66;101485.25;5039083;28;20063;-71
2021/06/03 03:29:37;;;;;;;6.28;3.78;;;;;;;17.40;67.39;101485.63;5024089;28;20033;-70
2021/06/03 03:32:03;;;;;;;6.68;3.95;;;;;;;17.40;67.33;101489.03;5041949;28;20032;-70
2021/06/03 03:34:30;;;;;;;7.00;4.53;;;;;;;17.40;67.60;101480.38;5040330;28;20148;-70
2021/06/03 03:36:57;;;;;;;8.55;4.80;;;;;;;17.41;67.66;101482.00;5036181;28;20170;-71
2021/06/03 03:39:23;;;;;;;5.72;4.03;;;;;;;17.44;67.41;101486.88;5024711;28;20037;-70
2021/06/03 03:41:52;;;;;;;6.18;3.38;;;;;;;17.45;67.54;101493.75;5040578;28;20029;-70
2021/06/03 03:44:18;;;;;;;6.05;3.50;;;;;;;17.46;67.04;101493.56;5040366;28;20037;-70
2021/06/03 03:46:44;;;;;;;7.32;3.67;;;;;;;17.44;67.36;101492.94;5042908;28;20573;-71
2021/06/03 03:49:10;;;;;;;4.22;3.38;;;;;;;17.41;67.42;101498.53;5024656;28;20105;-70
2021/06/03 03:51:37;;;;;;;10.75;4.70;;;;;;;17.40;67.53;101507.38;5023613;28;20022;-70
2021/06/03 03:54:03;;;;;;;9.45;3.58;;;;;;;17.39;67.42;101500.53;5034474;28;20025;-70
2021/06/03 03:56:28;;;;;;;4.80;3.40;;;;;;;17.42;67.31;101504.59;5023679;28;20045;-70
2021/06/03 03:58:58;;;;;;;5.68;3.70;;;;;;;17.42;67.46;101504.59;5023440;28;20498;-70
2021/06/03 04:01:28;;;;;;;8.13;3.63;;;;;;;17.43;67.54;101504.41;5039510;28;20037;-70
2021/06/03 04:03:54;;;;;;;7.55;3.42;;;;;;;17.45;67.55;101506.84;5023282;28;20033;-70
2021/06/03 04:06:20;;;;;;;5.68;3.50;;;;;;;17.45;67.63;101506.84;5024342;28;20387;-70
2021/06/03 04:08:48;;;;;;;6.55;3.22;;;;;;;17.46;67.58;101503.22;5037664;28;20045;-70
2021/06/03 04:11:15;;;;;;;6.10;3.45;;;;;;;17.44;68.17;101507.84;5040763;28;20560;-70
2021/06/03 04:13:44;;;;;;;7.68;3.92;;;;;;;17.44;68.25;101507.84;5040318;28;20048;-70
2021/06/03 04:16:10;;;;;;;6.10;3.70;;;;;;;17.46;68.16;101514.53;5021840;28;20049;-70
2021/06/03 04:18:37;;;;;;;6.93;3.72;;;;;;;17.51;67.88;101516.59;5024961;28;20045;-70
2021/06/03 04:21:04;;;;;;;7.93;3.78;;;;;;;17.55;67.82;101517.84;5041119;28;20101;-70
2021/06/03 04:23:30;;;;;;;11.18;4.47;;;;;;;17.62;68.00;101520.56;5039688;28;20048;-71
2021/06/03 04:25:56;;;;;;;9.35;4.35;;;;;;;17.65;67.95;101526.25;5020098;28;20524;-70
2021/06/03 04:28:22;;;;;;;6.68;4.15;;;;;;;17.64;68.30;101523.81;5024553;28;20033;-70
2021/06/03 04:30:47;;;;;;;11.00;4.88;;;;;;;17.60;68.83;101520.75;5025984;28;20021;-70
2021/06/03 04:33:16;;;;;;;6.93;3.80;;;;;;;17.60;68.73;101520.75;5026032;28;20044;-70
2021/06/03 04:35:41;;;;;;;10.23;4.63;;;;;;;17.66;68.53;101521.81;5023394;28;20044;-70
2021/06/03 04:38:07;;;;;;;7.35;4.45;;;;;;;17.78;67.70;101528.22;5036543;28;20426;-70
2021/06/03 04:40:33;;;;;;;9.57;4.72;;;;;;;17.82;67.63;101536.50;5041051;28;20064;-70
2021/06/03 04:42:58;;;;;;;7.68;4.70;;;;;;;17.93;67.50;101522.91;5025002;28;20033;-70
2021/06/03 04:45:25;;;;;;;9.45;4.80;;;;;;;17.90;67.36;101523.31;5039231;28;20128;-70
2021/06/03 04:47:50;;;;;;;6.85;4.78;;;;;;;17.87;67.58;101518.41;5019714;28;20045;-70
2021/06/03 04:50:18;;;;;;;10.02;4.10;;;;;;;17.90;67.56;101523.31;5040574;28;20808;-70
2021/06/03 04:52:45;;;;;;;13.90;5.18;;;;;;;17.92;67.66;101520.50;5025426;28;20061;-70
2021/06/03 04:55:18;;;;;;;7.40;4.80;;;;;;;17.90;67.69;101526.72;5027704;28;20033;-70
2021/06/03 04:57:44;;;;;;;12.63;4.90;;;;;;;17.91;67.10;101535.41;5033087;28;20033;-70
2021/06/03 05:00:14;;;;;;;9.25;3.90;;;;;;;17.92;67.19;101538.88;5024878;28;20337;-70
2021/06/03 05:02:40;;;;;;;8.27;4.63;;;;;;;18.02;67.18;101532.28;5022696;28;20080;-70
2021/06/03 05:05:06;;;;;;;13.55;5.05;;;;;;;18.02;66.97;101539.34;5025330;28;20079;-70
2021/06/03 05:07:32;;;;;;;7.68;4.40;;;;;;;18.00;67.05;101549.22;5022662;28;20025;-70
2021/06/03 05:09:58;;;;;;;6.85;4.07;;;;;;;18.10;67.02;101547.09;5040212;28;20115;-70
2021/06/03 05:12:25;;;;;;;10.02;5.25;;;;;;;18.12;66.84;101546.91;5022492;28;20483;-70
2021/06/03 05:14:51;;;;;;;14.80;5.90;;;;;;;18.31;66.80;101546.28;5032983;28;20040;-70
2021/06/03 05:17:16;;;;;;;10.82;5.05;;;;;;;18.44;66.61;101548.19;5036626;28;20041;-70
2021/06/03 05:19:41;;;;;;;8.93;4.97;;;;;;;18.64;66.44;101545.72;5020287;28;20102;-70
2021/06/03 05:22:07;;;;;;;7.97;4.95;;;;;;;18.88;65.11;101548.97;5038945;28;20109;-70
2021/06/03 05:24:33;;;;;;;8.73;5.10;;;;;;;19.01;64.57;101556.91;5037767;28;20112;-71
2021/06/03 05:26:59;;;;;;;9.43;5.32;;;;;;;19.30;63.80;101552.41;5015668;28;20037;-70
2021/06/03 05:29:25;;;;;;;8.02;4.85;;;;;;;19.35;63.87;101553.44;5017847;28;20037;-70
2021/06/03 05:31:52;;;;;;;12.07;4.68;;;;;;;19.30;63.66;101560.28;5024079;28;20033;-70
2021/06/03 05:34:18;;;;;;;7.40;4.13;;;;;;;19.21;64.34;101557.84;5021907;28;20482;-70
2021/06/03 05:36:44;;;;;;;10.20;4.68;;;;;;;19.24;64.17;101561.88;5037777;28;20469;-70
2021/06/03 05:39:10;;;;;;;11.43;4.38;;;;;;;19.22;64.11;101566.53;5022467;28;20094;-70
2021/06/03 05:41:37;;;;;;;10.65;4.40;;;;;;;19.28;64.11;101567.56;5043234;28;20037;-71
2021/06/03 05:44:04;;;;;;;9.85;4.43;;;;;;;19.45;63.53;101564.41;5023704;28;20025;-71
2021/06/03 05:46:30;;;;;;;7.00;4.57;;;;;;;19.48;63.62;101565.00;5020469;28;20041;-70
2021/06/03 05:48:55;;;;;;;6.25;3.75;;;;;;;19.49;63.90;101569.28;5022961;28;20630;-71
2021/06/03 05:51:21;;;;;;;8.35;4.28;;;;;;;19.61;63.15;101571.16;5039444;28;20445;-70
2021/06/03 05:53:46;;;;;;;6.07;4.05;;;;;;;19.79;62.94;101573.25;5023555;28;20034;-71
2021/06/03 05:56:11;;;;;;;6.40;4.63;;;;;;;20.20;61.33;101582.03;5020422;28;20041;-70
2021/06/03 05:58:37;;;;;;;7.60;4.00;;;;;;;20.65;60.19;101586.75;5021683;28;20044;-70
2021/06/03 06:01:03;;;;;;;8.52;4.10;;;;;;;21.05;59.28;101586.69;5038859;28;20059;-71
2021/06/03 06:03:42;;;;;;;6.78;3.92;;;;;;;21.29;58.11;101587.84;5023664;28;20566;-71
2021/06/03 06:06:24;;;;;;;8.07;4.93;;;;;;;21.06;58.92;101590.91;5020431;28;20033;-71
2021/06/03 06:08:55;;;;;;;8.23;4.13;;;;;;;20.74;59.94;101596.06;5023142;28;20521;-71
2021/06/03 06:11:21;;;;;;;9.82;3.85;;;;;;;20.52;60.48;101590.16;5035404;28;20682;-70
2021/06/03 06:13:47;;;;;;;6.30;3.53;;;;;;;20.41;61.05;101604.75;5022257;28;20049;-70
2021/06/03 06:16:14;;;;;;;10.70;3.92;;;;;;;20.32;62.00;101601.47;5037294;28;20064;-70
2021/06/03 06:18:41;;;;;;;8.02;4.22;;;;;;;20.35;61.90;101595.00;5038663;28;20067;-70
2021/06/03 06:21:07;;;;;;;10.70;4.30;;;;;;;20.31;62.24;101601.69;5039668;28;20046;-71
2021/06/03 06:23:35;;;;;;;7.32;4.30;;;;;;;20.40;61.77;101595.22;5025830;28;20041;-70
2021/06/03 06:26:01;;;;;;;4.80;3.47;;;;;;;20.42;61.87;101603.75;5040848;28;20087;-71
2021/06/03 06:28:27;;;;;;;4.90;3.92;;;;;;;20.42;62.81;101614.28;5027006;28;20049;-70
2021/06/03 06:30:52;;;;;;;10.05;4.32;;;;;;;20.53;62.42;101610.19;5025623;28;20029;-70
2021/06/03 06:33:18;;;;;;;11.68;4.38;;;;;;;20.61;62.79;101615.31;5026472;28;20364;-70
2021/06/03 06:35:47;;;;;;;5.70;3.58;;;;;;;20.64;62.73;101614.91;5025186;28;20065;-71
2021/06/03 06:38:13;;;;;;;8.43;4.20;;;;;;;20.81;61.99;101612.66;5037052;28;20033;-71
2021/06/03 06:40:39;;;;;;;8.20;3.83;;;;;;;20.88;61.61;101612.66;5030807;28;20517;-71
2021/06/03 06:43:04;;;;;;;9.52;4.07;;;;;;;21.05;60.83;101608.56;5027798;28;20128;-71
2021/06/03 06:45:31;;;;;;;8.00;3.67;;;;;;;21.14;61.10;101615.25;5025974;28;20037;-71
2021/06/03 06:47:57;;;;;;;10.50;3.50;;;;;;;21.13;61.11;101621.53;5040825;28;20065;-71
2021/06/03 06:50:23;;;;;;;7.28;4.10;;;;;;;21.15;61.49;101621.31;5028642;28;20585;-71
2021/06/03 06:52:50;;;;;;;8.27;3.72;;;;;;;21.19;61.67;101622.53;5025605;28;20025;-71
2021/06/03 06:55:15;;;;;;;11.60;5.35;;;;;;;21.33;60.98;101631.22;5024292;28;20041;-71
2021/06/03 06:57:42;;;;;;;7.25;4.40;;;;;;;21.34;60.92;101620.47;5023827;28;20036;-71
2021/06/03 07:00:09;;;;;;;6.40;4.47;;;;;;;21.49;60.85;101632.63;5025562;28;20029;-70
2021/06/03 07:02:35;;;;;;;9.05;3.90;;;;;;;21.42;60.72;101630.00;5025127;28;20573;-71
2021/06/03 07:05:02;;;;;;;7.55;3.88;;;;;;;21.51;61.25;101634.06;5026143;28;20029;-71
2021/06/03 07:07:27;;;;;;;5.43;3.85;;;;;;;21.80;60.21;101629.25;5028475;28;20041;-71
2021/06/03 07:09:53;;;;;;;7.05;3.83;;;;;;;21.90;60.45;101626.94;5027175;28;20423;-72
2021/06/03 07:12:18;;;;;;;8.10;4.00;;;;;;;21.89;61.94;101628.00;5047880;28;20030;-71
2021/06/03 07:14:44;;;;;;;13.02;4.28;;;;;;;21.80;61.19;101639.00;5027728;28;20432;-71
2021/06/03 07:17:09;;;;;;;9.90;3.97;;;;;;;21.74;61.95;101633.53;5027564;28;20087;-71
2021/06/03 07:19:35;;;;;;;5.97;3.42;;;;;;;21.69;62.13;101633.34;5026440;28;20509;-71
2021/06/03 07:22:00;;;;;;;9.43;4.28;;;;;;;21.61;62.33;101638.06;5026038;28;20030;-71
2021/06/03 07:24:26;;;;;;;9.13;4.38;;;;;;;21.56;62.60;101634.22;5026849;28;20037;-72
2021/06/03 07:26:51;;;;;;;5.05;3.55;;;;;;;21.53;62.65;101633.81;5024655;28;20155;-71
2021/06/03 07:29:17;;;;;;;5.82;3.85;;;;;;;21.49;62.79;101638.72;5025459;28;20033;-71
2021/06/03 07:31:42;;;;;;;10.75;4.88;;;;;;;21.49;63.49;101637.91;5024986;28;20096;-72
2021/06/03 07:34:07;;;;;;;8.23;4.63;;;;;;;21.48;63.61;101637.09;5041094;28;20041;-71
2021/06/03 07:36:34;;;;;;;9.05;4.75;;;;;;;21.46;63.82;101643.59;5017817;28;20036;-71
2021/06/03 07:39:01;;;;;;;9.82;4.95;;;;;;;21.44;63.71;101645.63;5037600;28;20467;-71
2021/06/03 07:41:26;;;;;;;17.00;4.75;;;;;;;21.35;63.84;101645.81;5044147;28;20148;-71
2021/06/03 07:43:52;;;;;;;5.10;4.15;;;;;;;21.30;64.15;101642.97;5025995;28;20108;-72
2021/06/03 07:46:17;;;;;;;8.30;4.88;;;;;;;21.26;64.46;101651.53;5040966;28;20490;-71
2021/06/03 07:48:42;;;;;;;9.25;4.32;;;;;;;21.25;64.81;101656.00;5025803;28;20510;-71
2021/06/03 07:51:10;;;;;;;13.18;5.15;;;;;;;21.68;63.61;101658.13;5028459;28;20462;-71
2021/06/03 07:53:36;;;;;;;5.85;4.50;;;;;;;22.37;61.70;101655.75;5031578;28;20043;-71
2021/06/03 07:56:02;;;;;;;9.15;4.55;;;;;;;22.95;59.60;101662.63;5024614;28;20700;-71
2021/06/03 07:58:27;;;;;;;9.18;4.20;;;;;;;23.25;57.98;101661.97;5023726;28;20037;-71
2021/06/03 08:00:53;;;;;;;8.82;5.25;;;;;;;24.04;56.21;101657.56;5036988;28;20389;-71
2021/06/03 08:03:19;;;;;;;7.03;4.88;;;;;;;24.40;54.93;101653.16;5025554;28;20041;-71
2021/06/03 08:05:45;;;;;;;8.68;4.57;;;;;;;25.04;54.15;101653.31;5025920;28;20385;-71
2021/06/03 08:08:11;;;;;;;9.98;4.95;;;;;;;24.67;54.37;101656.19;5025494;28;20624;-71
2021/06/03 08:10:40;;;;;;;8.25;4.22;;;;;;;24.34;56.21;101650.63;5040621;28;20026;-71
2021/06/03 08:13:08;;;;;;;10.07;4.50;;;;;;;24.15;55.63;101642.72;5025603;28;20029;-72
2021/06/03 08:15:35;;;;;;;9.73;4.45;;;;;;;24.65;55.40;101642.38;5039798;28;20537;-72
2021/06/03 08:18:02;;;;;;;14.38;4.60;;;;;;;24.84;55.28;101645.72;5025357;28;20079;-72
2021/06/03 08:20:31;;;;;;;9.85;4.85;;;;;;;24.91;54.18;101648.25;5022068;28;20452;-72
2021/06/03 08:22:57;;;;;;;9.05;4.45;;;;;;;24.75;55.81;101651.59;5023812;28;20041;-73
2021/06/03 08:25:23;;;;;;;7.95;3.70;;;;;;;25.12;55.77;101649.50;5020160;28;20064;-72
2021/06/03 08:27:48;;;;;;;12.52;4.00;;;;;;;25.59;54.80;101651.28;5021968;28;20064;-72
2021/06/03 08:30:15;;;;;;;7.47;4.03;;;;;;;25.97;52.49;101648.03;5041623;28;20502;-72
2021/06/03 08:32:44;;;;;;;11.80;4.45;;;;;;;26.11;52.21;101651.22;5038766;28;20037;-71
2021/06/03 08:35:15;;;;;;;8.23;3.47;;;;;;;26.58;51.54;101650.91;5025255;28;20355;-72
2021/06/03 08:37:42;;;;;;;7.43;3.88;;;;;;;26.41;52.24;101648.25;5025701;28;20071;-72
2021/06/03 08:40:09;;;;;;;8.68;4.25;;;;;;;25.98;52.58;101656.81;5020915;28;20785;-72
2021/06/03 08:42:34;;;;;;;7.43;3.78;;;;;;;25.69;54.29;101659.44;5039247;28;20091;-72
2021/06/03 08:45:01;;;;;;;8.48;4.00;;;;;;;25.55;54.56;101656.25;5023648;28;20417;-71
2021/06/03 08:47:29;;;;;;;6.20;4.25;;;;;;;25.38;53.83;101656.19;5021428;28;20095;-71
2021/06/03 08:49:54;;;;;;;9.13;4.65;;;;;;;25.39;53.83;101654.31;5023917;28;20315;-72
2021/06/03 08:52:20;;;;;;;5.80;4.20;;;;;;;25.43;54.62;101655.50;5023276;28;20041;-72
2021/06/03 08:54:45;;;;;;;6.25;4.15;;;;;;;25.60;53.90;101661.66;5023862;28;20514;-72
2021/06/03 08:57:12;;;;;;;11.43;4.75;;;;;;;25.43;53.72;101668.78;5023285;28;20060;-73
2021/06/03 08:59:38;;;;;;;7.22;4.63;;;;;;;25.53;54.75;101666.31;5040120;28;20095;-72
2021/06/03 09:02:04;;;;;;;7.38;3.97;;;;;;;25.47;55.03;101669.91;5037453;28;20033;-72
2021/06/03 09:04:30;;;;;;;7.57;4.38;;;;;;;25.35;55.50;101669.13;5038415;28;20045;-72
2021/06/03 09:06:55;;;;;;;5.45;3.42;;;;;;;25.35;55.82;101661.16;5042981;28;20131;-73
2021/06/03 09:09:29;;;;;;;11.23;5.25;;;;;;;25.16;55.79;101671.06;5039869;28;20066;-72
2021/06/03 09:12:10;;;;;;;8.50;3.67;;;;;;;24.99;57.14;101669.13;5037478;28;20502;-72
2021/06/03 09:14:36;;;;;;;8.40;4.82;;;;;;;24.96;56.97;101674.06;5022064;28;20504;-72
2021/06/03 09:17:02;;;;;;;7.03;3.88;;;;;;;24.98;56.37;101672.81;5037148;28;20116;-72
2021/06/03 09:19:27;;;;;;;9.98;4.20;;;;;;;25.13;56.49;101679.50;5024914;28;20445;-71
2021/06/03 09:21:53;;;;;;;6.20;3.15;;;;;;;25.06;56.04;101683.06;5042356;28;20119;-72
2021/06/03 09:24:21;;;;;;;5.75;2.80;;;;;;;24.84;55.32;101682.03;5036799;28;20069;-71
2021/06/03 09:26:53;;;;;;;4.82;2.60;;;;;;;24.94;54.57;101684.13;5039373;28;20041;-72
2021/06/03 09:29:32;;;;;;;5.53;2.38;;;;;;;24.83;53.70;101685.75;5023730;28;20059;-72
2021/06/03 09:32:10;;;;;;;6.30;2.42;;;;;;;24.87;53.94;101681.59;5024438;28;20101;-72
2021/06/03 09:34:39;;;;;;;3.67;2.28;;;;;;;24.93;54.46;101693.91;5036717;28;20037;-71
2021/06/03 09:37:07;;;;;;;4.97;2.40;;;;;;;24.71;56.69;101695.53;5037777;28;20120;-72
2021/06/03 09:39:35;;;;;;;4.28;2.63;;;;;;;24.81;56.95;101696.56;5025266;28;20128;-72
2021/06/03 09:42:04;;;;;;;5.72;2.72;;;;;;;24.65;57.69;101708.66;5023325;28;20038;-71
2021/06/03 09:44:31;;;;;;;4.63;2.90;;;;;;;24.76;57.85;101704.41;5023943;28;20052;-72
2021/06/03 09:47:01;;;;;;;6.18;2.80;;;;;;;24.77;60.05;101707.84;5024067;28;20056;-73
2021/06/03 09:49:30;;;;;;;5.38;3.65;;;;;;;24.43;59.74;101707.53;5022886;28;20037;-71
2021/06/03 09:51:59;;;;;;;9.70;3.72;;;;;;;24.68;59.48;101704.75;5022252;28;20040;-72
2021/06/03 09:54:25;;;;;;;5.85;2.83;;;;;;;24.47;59.80;101706.06;5035166;28;20073;-72
2021/06/03 09:56:57;;;;;;;4.47;2.50;;;;;;;24.62;58.73;101703.00;5039067;28;20363;-72
2021/06/03 09:59:43;;;;;;;5.47;2.80;;;;;;;24.57;58.76;101701.03;5022193;28;20067;-72
2021/06/03 10:02:20;;;;;;;5.43;2.72;;;;;;;24.64;57.58;101701.75;5031818;28;20342;-71
2021/06/03 10:04:51;;;;;;;4.47;2.60;;;;;;;24.74;56.17;101698.53;5043818;28;20041;-71
2021/06/03 10:07:26;;;;;;;6.45;2.90;;;;;;;25.04;57.90;101700.28;5033888;28;20069;-72
2021/06/03 10:10:02;;;;;;;4.75;2.58;;;;;;;25.37;56.39;101688.25;5020550;28;20455;-71
2021/06/03 10:12:41;;;;;;;5.32;2.45;;;;;;;25.30;54.66;101691.06;5024011;28;21514;-72
2021/06/03 10:15:21;;;;;;;6.00;2.72;;;;;;;25.62;55.44;101691.44;5037989;28;20532;-71
2021/06/03 10:17:54;;;;;;;3.95;2.42;;;;;;;25.87;54.24;101692.19;5021665;28;20098;-72
2021/06/03 10:20:30;;;;;;;2.80;2.20;;;;;;;25.78;52.65;101687.22;5023107;28;20545;-71
2021/06/03 10:22:55;;;;;;;5.85;2.85;;;;;;;25.70;52.83;101692.94;5019148;28;20053;-71
2021/06/03 10:25:29;;;;;;;4.40;2.60;;;;;;;25.48;53.36;101684.78;5020888;28;20318;-72
2021/06/03 10:28:04;;;;;;;5.35;2.25;;;;;;;25.51;53.53;101691.50;5022053;28;20164;-72
2021/06/03 10:30:41;;;;;;;4.00;2.53;;;;;;;25.31;52.92;101695.31;5029051;28;20085;-72
2021/06/03 10:33:13;;;;;;;5.25;2.38;;;;;;;25.30;53.50;101691.06;5022287;28;20037;-71
2021/06/03 10:35:41;;;;;;;4.72;2.47;;;;;;;25.19;53.90;101684.69;5021051;28;20358;-72
2021/06/03 10:38:08;;;;;;;7.18;2.97;;;;;;;25.14;55.16;101684.56;5023201;28;20493;-73
2021/06/03 10:40:37;;;;;;;3.58;2.40;;;;;;;25.28;55.07;101690.50;5023847;28;20245;-72
2021/06/03 10:43:05;;;;;;;10.27;2.92;;;;;;;25.45;54.24;101690.56;5020384;28;20059;-72
2021/06/03 10:45:33;;;;;;;4.85;2.30;;;;;;;25.25;53.91;101691.75;5040931;28;20513;-72
2021/06/03 10:47:59;;;;;;;3.85;2.65;;;;;;;25.35;53.46;101693.81;5021294;28;20357;-72
2021/06/03 10:50:36;;;;;;;4.15;2.50;;;;;;;25.56;52.96;101696.88;5024176;28;20061;-73
2021/06/03 10:53:10;;;;;;;5.13;2.08;;;;;;;25.41;53.21;101682.28;5025999;28;20083;-72
2021/06/03 10:55:37;;;;;;;5.55;2.85;;;;;;;25.61;52.16;101683.72;5036176;28;20128;-73
2021/06/03 10:58:06;;;;;;;3.70;2.67;;;;;;;25.66;52.47;101683.81;5021754;28;20037;-73
2021/06/03 11:00:41;;;;;;;5.65;2.10;;;;;;;25.81;51.40;101681.47;5023511;28;20550;-73
2021/06/03 11:03:15;;;;;;;3.97;2.47;;;;;;;26.06;51.44;101680.34;5036806;28;20096;-73
2021/06/03 11:05:46;;;;;;;7.00;2.80;;;;;;;26.13;50.34;101683.66;5038042;28;20037;-72
2021/06/03 11:08:34;;;;;;;3.58;2.83;;;;;;;26.06;51.55;101684.84;5024773;28;20754;-72
2021/06/03 11:11:08;;;;;;;3.80;2.60;;;;;;;26.17;51.86;101686.66;5026873;28;20248;-73
2021/06/03 11:13:35;;;;;;;3.83;2.03;;;;;;;26.54;50.54;101686.19;5026236;28;20521;-72
2021/06/03 11:16:11;;;;;;;7.35;2.42;;;;;;;26.44;50.24;101684.16;5023629;28;20060;-72
2021/06/03 11:18:49;;;;;;;3.13;2.05;;;;;;;26.59;51.15;101683.63;5026333;28;20032;-72
2021/06/03 11:24:09;;;;;;;5.60;2.33;;;;;;;26.69;49.18;101686.47;5023352;28;20033;-71
2021/06/03 11:26:38;;;;;;;3.30;1.90;;;;;;;27.08;47.23;101672.38;5016179;28;20112;-73
2021/06/03 11:29:10;;;;;;;2.85;2.35;;;;;;;27.16;46.96;101672.78;5039312;28;20056;-72
2021/06/03 11:31:37;;;;;;;3.42;2.17;;;;;;;27.21;48.72;101673.88;5019813;28;20337;-72